Time;durP1;ratioP1;P1;durP2;ratioP2;P2;SDS_P1;SDS_P2;PMS_P1;PMS_P2;Temp;Humidity;BMP_temperature;BMP_pressure;BME280_temperature;BME280_humidity;BME280_pressure;Samples;Min_cycle;Max_cycle;Signal;HPM_P1;HPM_P2
2022/05/20 00:00:06;;;;;;;6.03;5.43;;;;;;;;;;5035336;28;20478;-66
2022/05/20 00:02:32;;;;;;;5.50;5.10;;;;;;;;;;5035234;28;20481;-66
2022/05/20 00:04:59;;;;;;;5.13;4.60;;;;;;;;;;5035349;28;20449;-65
2022/05/20 00:07:25;;;;;;;5.60;4.70;;;;;;;;;;5035271;28;20481;-67
2022/05/20 00:09:51;;;;;;;3.90;3.80;;;;;;;;;;5035202;28;20409;-67
2022/05/20 00:12:19;;;;;;;5.07;4.77;;;;;;;;;;5035094;28;20416;-65
2022/05/20 00:14:45;;;;;;;4.90;4.80;;;;;;;;;;5035115;28;20791;-68
2022/05/20 00:17:11;;;;;;;4.63;4.33;;;;;;;;;;5035164;28;20410;-65
2022/05/20 00:19:38;;;;;;;4.90;4.40;;;;;;;;;;5035036;28;20893;-65
2022/05/20 00:22:05;;;;;;;4.63;4.53;;;;;;;;;;5017094;28;20517;-66
2022/05/20 00:24:31;;;;;;;8.90;5.20;;;;;;;;;;5017102;28;20809;-65
2022/05/20 00:26:57;;;;;;;5.47;5.00;;;;;;;;;;5034832;28;20780;-68
2022/05/20 00:29:23;;;;;;;5.37;4.90;;;;;;;;;;5035052;28;20807;-65
2022/05/20 00:31:49;;;;;;;4.93;4.50;;;;;;;;;;5034736;28;20522;-67
2022/05/20 00:34:15;;;;;;;5.17;4.87;;;;;;;;;;5034424;28;20425;-66
2022/05/20 00:36:41;;;;;;;5.53;5.03;;;;;;;;;;5034729;28;20423;-65
2022/05/20 00:39:07;;;;;;;7.03;5.10;;;;;;;;;;5034696;28;20418;-66
2022/05/20 00:41:33;;;;;;;5.30;4.87;;;;;;;;;;5034568;28;21038;-65
2022/05/20 00:43:59;;;;;;;5.20;4.77;;;;;;;;;;5034482;28;20398;-64
2022/05/20 00:46:26;;;;;;;5.50;5.10;;;;;;;;;;5034545;28;20423;-66
2022/05/20 00:48:58;;;;;;;5.17;4.97;;;;;;;;;;5034455;28;20419;-65
2022/05/20 00:51:26;;;;;;;5.83;5.30;;;;;;;;;;5034318;28;20427;-64
2022/05/20 00:54:02;;;;;;;4.60;4.20;;;;;;;;;;5034351;28;20914;-66
2022/05/20 00:56:31;;;;;;;5.23;4.90;;;;;;;;;;5034226;28;20403;-65
2022/05/20 00:58:58;;;;;;;9.50;4.53;;;;;;;;;;5034565;28;20768;-66
2022/05/20 01:01:24;;;;;;;5.60;5.20;;;;;;;;;;5034098;28;20945;-65
2022/05/20 01:03:52;;;;;;;8.00;5.63;;;;;;;;;;5034180;28;20415;-65
2022/05/20 01:06:18;;;;;;;5.50;5.20;;;;;;;;;;5016388;28;20424;-65
2022/05/20 01:08:44;;;;;;;6.20;5.37;;;;;;;;;;5033259;28;20446;-65
2022/05/20 01:11:10;;;;;;;5.00;4.70;;;;;;;;;;5034049;28;20506;-65
2022/05/20 01:13:36;;;;;;;10.60;5.70;;;;;;;;;;5033970;28;20414;-66
2022/05/20 01:16:07;;;;;;;10.57;5.50;;;;;;;;;;5033856;28;20459;-65
2022/05/20 01:18:34;;;;;;;6.90;5.50;;;;;;;;;;5033996;28;20402;-66
2022/05/20 01:21:01;;;;;;;6.00;5.30;;;;;;;;;;5033732;28;21002;-65
2022/05/20 01:23:28;;;;;;;5.57;5.07;;;;;;;;;;5033775;28;20449;-65
2022/05/20 01:25:55;;;;;;;5.30;5.03;;;;;;;;;;5033796;28;20408;-67
2022/05/20 01:28:22;;;;;;;6.67;5.90;;;;;;;;;;5033758;28;20417;-66
2022/05/20 01:30:52;;;;;;;5.40;5.20;;;;;;;;;;5033866;28;20449;-65
2022/05/20 01:33:26;;;;;;;5.97;5.50;;;;;;;;;;5033800;28;20407;-65
2022/05/20 01:35:52;;;;;;;4.67;4.37;;;;;;;;;;5015771;28;20473;-65
2022/05/20 01:38:18;;;;;;;5.47;5.20;;;;;;;;;;5015942;28;20967;-67
2022/05/20 01:40:52;;;;;;;5.37;4.97;;;;;;;;;;5015803;28;20425;-65
2022/05/20 01:43:36;;;;;;;5.23;4.73;;;;;;;;;;5033518;28;20468;-65
2022/05/20 01:46:02;;;;;;;6.10;5.70;;;;;;;;;;5033507;28;20422;-65
2022/05/20 01:48:35;;;;;;;6.37;5.63;;;;;;;;;;5033517;28;20418;-65
2022/05/20 01:51:03;;;;;;;8.33;5.30;;;;;;;;;;5033472;28;20449;-67
2022/05/20 01:53:35;;;;;;;6.90;6.23;;;;;;;;;;5033457;28;20426;-66
2022/05/20 01:56:01;;;;;;;5.13;4.80;;;;;;;;;;5033422;28;20462;-67
2022/05/20 01:58:33;;;;;;;5.27;4.83;;;;;;;;;;5015720;28;20926;-66
2022/05/20 02:01:02;;;;;;;5.67;5.00;;;;;;;;;;5033267;28;20528;-64
2022/05/20 02:03:28;;;;;;;7.33;5.60;;;;;;;;;;5015642;28;20515;-65
2022/05/20 02:05:54;;;;;;;5.73;5.37;;;;;;;;;;5033255;28;20469;-66
2022/05/20 02:08:35;;;;;;;6.20;5.57;;;;;;;;;;5033357;28;20418;-66
2022/05/20 02:11:03;;;;;;;6.23;5.47;;;;;;;;;;5033315;28;20437;-65
2022/05/20 02:13:31;;;;;;;5.23;5.00;;;;;;;;;;5033655;28;20418;-65
2022/05/20 02:16:04;;;;;;;8.97;5.97;;;;;;;;;;5033281;28;20428;-65
2022/05/20 02:18:42;;;;;;;5.67;5.37;;;;;;;;;;5033658;28;20416;-67
2022/05/20 02:21:11;;;;;;;7.90;5.90;;;;;;;;;;5037146;28;20472;-67
2022/05/20 02:26:27;;;;;;;25.57;6.30;;;;;;;;;;5385373;22;20538;-66
2022/05/20 02:29:04;;;;;;;6.30;5.73;;;;;;;;;;5096735;28;20414;-66
2022/05/20 02:31:40;;;;;;;6.20;5.60;;;;;;;;;;5078921;28;20504;-65
2022/05/20 02:34:06;;;;;;;5.90;5.40;;;;;;;;;;5097147;28;20496;-66
2022/05/20 02:36:33;;;;;;;7.00;5.47;;;;;;;;;;5097360;28;20492;-66
2022/05/20 02:38:59;;;;;;;6.97;4.80;;;;;;;;;;5096558;28;20399;-65
2022/05/20 02:41:25;;;;;;;4.97;4.67;;;;;;;;;;5096646;28;20473;-66
2022/05/20 02:43:51;;;;;;;6.43;5.83;;;;;;;;;;5096945;28;20408;-65
2022/05/20 02:46:18;;;;;;;6.03;5.60;;;;;;;;;;5096723;28;20458;-66
2022/05/20 02:48:44;;;;;;;7.10;6.17;;;;;;;;;;5096746;28;20408;-66
2022/05/20 02:51:09;;;;;;;6.90;6.50;;;;;;;;;;5096875;28;20503;-65
2022/05/20 02:53:36;;;;;;;7.83;5.97;;;;;;;;;;5096475;28;20413;-68
2022/05/20 02:56:03;;;;;;;6.40;6.03;;;;;;;;;;5096634;28;20421;-65
2022/05/20 03:04:12;;;;;;;11.73;6.03;;;;;;;;;;5096406;28;20400;-67
2022/05/20 03:06:41;;;;;;;6.10;5.60;;;;;;;;;;5096532;28;20401;-65
2022/05/20 03:09:08;;;;;;;9.43;6.83;;;;;;;;;;5096293;28;20401;-66
2022/05/20 03:11:34;;;;;;;6.83;6.10;;;;;;;;;;5077931;28;20931;-66
2022/05/20 03:14:04;;;;;;;7.23;6.47;;;;;;;;;;5096462;28;20456;-66
2022/05/20 03:16:31;;;;;;;7.57;6.80;;;;;;;;;;5096470;28;20404;-65
2022/05/20 03:18:57;;;;;;;6.73;6.10;;;;;;;;;;5096271;28;20502;-65
2022/05/20 03:21:23;;;;;;;7.23;6.70;;;;;;;;;;5095819;28;20453;-69
2022/05/20 03:23:49;;;;;;;5.90;5.60;;;;;;;;;;5096226;28;20405;-68
2022/05/20 03:26:15;;;;;;;7.20;6.10;;;;;;;;;;5077918;28;20901;-66
2022/05/20 03:28:42;;;;;;;14.20;6.80;;;;;;;;;;5078417;28;20464;-66
2022/05/20 03:31:09;;;;;;;7.67;6.90;;;;;;;;;;5095192;28;20511;-66
2022/05/20 03:33:36;;;;;;;7.20;6.20;;;;;;;;;;5095270;28;20431;-65
2022/05/20 03:36:02;;;;;;;6.57;6.17;;;;;;;;;;5095761;28;20492;-66
2022/05/20 03:38:28;;;;;;;6.83;6.43;;;;;;;;;;5077528;28;20432;-66
2022/05/20 03:40:54;;;;;;;11.33;6.50;;;;;;;;;;5095797;28;20438;-65
2022/05/20 03:43:20;;;;;;;7.50;7.00;;;;;;;;;;5077621;28;20417;-68
2022/05/20 03:45:47;;;;;;;8.37;7.57;;;;;;;;;;5095659;28;20411;-66
2022/05/20 03:48:13;;;;;;;35.13;29.87;;;;;;;;;;5077270;28;20502;-65
2022/05/20 03:50:39;;;;;;;8.00;7.10;;;;;;;;;;5094740;28;20982;-67
2022/05/20 03:53:05;;;;;;;8.33;6.87;;;;;;;;;;5095700;28;20491;-65
2022/05/20 03:55:31;;;;;;;8.37;7.77;;;;;;;;;;5095539;28;20424;-66
2022/05/20 03:57:57;;;;;;;6.93;6.43;;;;;;;;;;5095525;28;20465;-66
2022/05/20 04:00:23;;;;;;;13.53;6.50;;;;;;;;;;5095423;28;20416;-67
2022/05/20 04:02:49;;;;;;;7.40;6.57;;;;;;;;;;5095455;28;20525;-67
2022/05/20 04:05:15;;;;;;;10.53;6.60;;;;;;;;;;5095550;28;20765;-67
2022/05/20 04:07:41;;;;;;;6.97;6.37;;;;;;;;;;5095485;28;20471;-65
2022/05/20 04:10:07;;;;;;;7.80;6.43;;;;;;;;;;5095337;28;20393;-65
2022/05/20 04:12:35;;;;;;;6.97;6.53;;;;;;;;;;5094883;28;20410;-68
2022/05/20 04:15:01;;;;;;;7.90;7.13;;;;;;;;;;5095086;28;20399;-65
2022/05/20 04:17:27;;;;;;;15.63;14.13;;;;;;;;;;5095148;28;20405;-68
2022/05/20 04:19:53;;;;;;;9.80;8.90;;;;;;;;;;5095172;28;20913;-65
2022/05/20 04:22:23;;;;;;;17.00;7.73;;;;;;;;;;5076776;28;20479;-66
2022/05/20 04:24:49;;;;;;;8.13;7.63;;;;;;;;;;5095099;28;20502;-65
2022/05/20 04:27:16;;;;;;;7.93;7.33;;;;;;;;;;5094915;28;20604;-66
2022/05/20 04:29:42;;;;;;;7.57;6.87;;;;;;;;;;5095017;28;20743;-67
2022/05/20 04:32:08;;;;;;;7.27;6.60;;;;;;;;;;5094891;28;20415;-67
2022/05/20 04:34:34;;;;;;;7.10;6.60;;;;;;;;;;5094763;28;20435;-66
2022/05/20 04:37:00;;;;;;;8.50;7.70;;;;;;;;;;5094649;28;20490;-65
2022/05/20 04:39:26;;;;;;;7.07;6.57;;;;;;;;;;5094888;28;20385;-66
2022/05/20 04:47:24;;;;;;;7.00;6.50;;;;;;;;;;5094471;28;20483;-66
2022/05/20 04:49:50;;;;;;;13.50;8.30;;;;;;;;;;5094649;28;20956;-66
2022/05/20 04:52:17;;;;;;;8.60;8.00;;;;;;;;;;5094428;28;20446;-67
2022/05/20 04:54:49;;;;;;;7.07;6.70;;;;;;;;;;5094381;28;20456;-66
2022/05/20 04:57:22;;;;;;;17.27;7.47;;;;;;;;;;5094432;28;20463;-65
2022/05/20 04:59:49;;;;;;;8.60;6.47;;;;;;;;;;5094530;28;20461;-66
2022/05/20 05:02:15;;;;;;;10.40;7.23;;;;;;;;;;5094253;28;20615;-67
2022/05/20 05:04:41;;;;;;;7.63;7.00;;;;;;;;;;5094271;28;20436;-69
2022/05/20 05:07:09;;;;;;;7.83;7.10;;;;;;;;;;5093979;28;20419;-69
2022/05/20 05:09:36;;;;;;;10.57;6.80;;;;;;;;;;5075964;28;20427;-66
2022/05/20 05:12:03;;;;;;;7.80;7.17;;;;;;;;;;5094069;28;20424;-66
2022/05/20 05:14:29;;;;;;;11.13;7.60;;;;;;;;;;5094197;28;20411;-65
2022/05/20 05:16:55;;;;;;;13.60;7.97;;;;;;;;;;5094153;28;20425;-68
2022/05/20 05:19:21;;;;;;;7.63;6.93;;;;;;;;;;5093953;28;20393;-66
2022/05/20 05:21:47;;;;;;;11.03;7.30;;;;;;;;;;5093935;28;20518;-66
2022/05/20 05:24:13;;;;;;;9.17;7.53;;;;;;;;;;5094211;28;20395;-66
2022/05/20 05:26:42;;;;;;;7.40;6.73;;;;;;;;;;5093665;28;20470;-67
2022/05/20 05:29:08;;;;;;;6.40;6.00;;;;;;;;;;5093808;28;20398;-67
2022/05/20 05:31:34;;;;;;;7.80;6.50;;;;;;;;;;5093961;28;20402;-66
2022/05/20 05:34:00;;;;;;;7.00;6.50;;;;;;;;;;5093659;28;20400;-65
2022/05/20 05:36:26;;;;;;;11.13;6.67;;;;;;;;;;5093602;28;20737;-66
2022/05/20 05:38:52;;;;;;;7.93;7.17;;;;;;;;;;5093624;28;20496;-67
2022/05/20 05:41:19;;;;;;;10.37;7.00;;;;;;;;;;5093419;28;20652;-67
2022/05/20 05:43:45;;;;;;;8.60;7.83;;;;;;;;;;5093823;28;20426;-66
2022/05/20 05:46:11;;;;;;;9.50;8.60;;;;;;;;;;5093622;28;20777;-67
2022/05/20 05:48:37;;;;;;;10.53;8.30;;;;;;;;;;5093626;28;20412;-68
2022/05/20 05:51:03;;;;;;;9.13;8.03;;;;;;;;;;5093604;28;20411;-67
2022/05/20 05:53:29;;;;;;;8.43;7.33;;;;;;;;;;5093075;28;20883;-67
2022/05/20 05:55:57;;;;;;;9.93;8.50;;;;;;;;;;5093489;28;20425;-66
2022/05/20 05:58:24;;;;;;;12.23;7.70;;;;;;;;;;5075774;28;20458;-65
2022/05/20 06:00:50;;;;;;;8.90;7.97;;;;;;;;;;5093475;28;20456;-65
2022/05/20 06:03:16;;;;;;;8.43;7.70;;;;;;;;;;5093463;28;20420;-65
2022/05/20 06:05:43;;;;;;;7.93;7.33;;;;;;;;;;5093504;28;20944;-64
2022/05/20 06:08:09;;;;;;;7.70;7.00;;;;;;;;;;5093552;28;20477;-65
2022/05/20 06:10:35;;;;;;;8.40;7.10;;;;;;;;;;5093471;28;20428;-64
2022/05/20 06:13:01;;;;;;;11.77;6.60;;;;;;;;;;5093534;28;20408;-63
2022/05/20 06:15:28;;;;;;;10.30;6.63;;;;;;;;;;5093394;28;20446;-66
2022/05/20 06:17:55;;;;;;;7.00;6.60;;;;;;;;;;5093432;28;20416;-64
2022/05/20 06:20:22;;;;;;;8.00;6.60;;;;;;;;;;5093433;28;20402;-65
2022/05/20 06:22:49;;;;;;;8.10;6.50;;;;;;;;;;5093213;28;20561;-65
2022/05/20 06:25:15;;;;;;;7.50;6.30;;;;;;;;;;5093304;28;20406;-65
2022/05/20 06:27:41;;;;;;;6.60;6.20;;;;;;;;;;5093265;28;20470;-65
2022/05/20 06:30:08;;;;;;;6.80;6.20;;;;;;;;;;5093270;28;20457;-65
2022/05/20 06:32:35;;;;;;;7.30;6.67;;;;;;;;;;5093278;28;20409;-64
2022/05/20 06:40:37;;;;;;;9.73;5.83;;;;;;;;;;5093235;28;20416;-64
2022/05/20 06:43:04;;;;;;;6.57;5.97;;;;;;;;;;5093098;28;20665;-64
2022/05/20 06:45:33;;;;;;;11.87;6.23;;;;;;;;;;5093160;28;20441;-63
2022/05/20 06:47:59;;;;;;;7.23;5.67;;;;;;;;;;5093075;28;20412;-65
2022/05/20 06:50:25;;;;;;;6.27;5.97;;;;;;;;;;5093143;28;20400;-64
2022/05/20 06:52:51;;;;;;;13.47;5.93;;;;;;;;;;5093025;28;20437;-63
2022/05/20 06:55:17;;;;;;;6.80;6.17;;;;;;;;;;5092820;28;20436;-64
2022/05/20 06:57:43;;;;;;;8.50;6.67;;;;;;;;;;5092989;28;20427;-64
2022/05/20 07:00:11;;;;;;;7.17;5.47;;;;;;;;;;5092932;28;20489;-64
2022/05/20 07:02:37;;;;;;;11.13;6.47;;;;;;;;;;5092927;28;20532;-64
2022/05/20 07:05:04;;;;;;;6.50;6.00;;;;;;;;;;5075095;28;20721;-64
2022/05/20 07:07:31;;;;;;;7.27;6.60;;;;;;;;;;5096846;28;20737;-63
2022/05/20 07:09:57;;;;;;;8.07;6.40;;;;;;;;;;5096519;28;20398;-64
2022/05/20 07:12:23;;;;;;;9.80;6.23;;;;;;;;;;5096440;28;20436;-64
2022/05/20 07:14:49;;;;;;;9.83;6.57;;;;;;;;;;5096520;28;20879;-63
2022/05/20 07:17:16;;;;;;;6.33;5.83;;;;;;;;;;5096384;28;20881;-63
2022/05/20 07:19:42;;;;;;;8.00;5.70;;;;;;;;;;5096395;28;20408;-63
2022/05/20 07:22:09;;;;;;;6.17;5.57;;;;;;;;;;5078137;28;20835;-63
2022/05/20 07:24:35;;;;;;;6.63;5.97;;;;;;;;;;5078099;28;20424;-63
2022/05/20 07:27:00;;;;;;;6.43;5.90;;;;;;;;;;5096061;28;20831;-64
2022/05/20 07:29:26;;;;;;;6.00;5.60;;;;;;;;;;5096142;28;20412;-63
2022/05/20 07:31:52;;;;;;;8.07;5.60;;;;;;;;;;5096092;28;20817;-64
2022/05/20 07:34:18;;;;;;;5.67;5.13;;;;;;;;;;5096054;28;20790;-63
2022/05/20 07:36:44;;;;;;;5.93;5.30;;;;;;;;;;5095932;28;20407;-64
2022/05/20 07:39:11;;;;;;;7.30;5.20;;;;;;;;;;5077894;28;20448;-64
2022/05/20 07:41:37;;;;;;;13.33;5.30;;;;;;;;;;5095709;28;20823;-63
2022/05/20 07:44:03;;;;;;;6.47;5.33;;;;;;;;;;5095816;28;20466;-64
2022/05/20 07:46:29;;;;;;;5.90;5.40;;;;;;;;;;5095782;28;20404;-64
2022/05/20 07:48:55;;;;;;;5.10;4.80;;;;;;;;;;5095712;28;20419;-63
2022/05/20 07:51:22;;;;;;;6.33;5.57;;;;;;;;;;5095722;28;20546;-64
2022/05/20 07:53:54;;;;;;;5.97;5.43;;;;;;;;;;5095863;28;20415;-64
2022/05/20 07:56:23;;;;;;;7.60;4.90;;;;;;;;;;5095641;28;20411;-63
2022/05/20 07:58:51;;;;;;;6.97;5.73;;;;;;;;;;5095617;28;20409;-64
2022/05/20 08:01:25;;;;;;;5.73;5.37;;;;;;;;;;5095440;28;20567;-64
2022/05/20 08:06:39;;;;;;;5.87;5.27;;;;;;;;;;5095709;28;20401;-63
2022/05/20 08:09:06;;;;;;;5.13;4.83;;;;;;;;;;5095462;28;20406;-64
2022/05/20 08:11:32;;;;;;;5.60;5.17;;;;;;;;;;5095104;28;20903;-64
2022/05/20 08:13:58;;;;;;;5.00;4.53;;;;;;;;;;5095318;28;20414;-64
2022/05/20 08:16:24;;;;;;;5.03;4.70;;;;;;;;;;5094870;28;20899;-64
2022/05/20 08:18:52;;;;;;;13.23;5.40;;;;;;;;;;5095193;28;20463;-64
2022/05/20 08:21:18;;;;;;;7.17;5.47;;;;;;;;;;5095105;28;20456;-64
2022/05/20 08:23:45;;;;;;;11.07;6.27;;;;;;;;;;5095171;28;20413;-64
2022/05/20 08:26:16;;;;;;;9.23;5.70;;;;;;;;;;5095141;28;20413;-64
2022/05/20 08:28:42;;;;;;;5.93;5.20;;;;;;;;;;5095093;28;20487;-64
2022/05/20 08:31:08;;;;;;;7.00;5.47;;;;;;;;;;5094835;28;20884;-63
2022/05/20 08:33:34;;;;;;;7.37;5.70;;;;;;;;;;5094955;28;20406;-64
2022/05/20 08:36:01;;;;;;;9.83;5.40;;;;;;;;;;5076729;28;20809;-64
2022/05/20 08:38:27;;;;;;;8.57;5.40;;;;;;;;;;5094881;28;20501;-63
2022/05/20 08:40:53;;;;;;;9.23;5.10;;;;;;;;;;5094682;28;20401;-64
2022/05/20 08:43:22;;;;;;;12.17;5.30;;;;;;;;;;5094740;28;20425;-64
2022/05/20 08:45:48;;;;;;;10.47;5.40;;;;;;;;;;5094930;28;20455;-63
2022/05/20 08:48:16;;;;;;;5.07;4.60;;;;;;;;;;5094713;28;20876;-64
2022/05/20 08:50:44;;;;;;;8.93;4.53;;;;;;;;;;5094954;28;20514;-64
2022/05/20 08:53:17;;;;;;;5.23;4.60;;;;;;;;;;5094485;28;20502;-63
2022/05/20 08:55:44;;;;;;;4.77;4.33;;;;;;;;;;5094506;28;20420;-64
2022/05/20 08:58:11;;;;;;;7.50;3.97;;;;;;;;;;5094478;28;20872;-64
2022/05/20 09:00:37;;;;;;;4.50;3.93;;;;;;;;;;5094424;28;20413;-64
2022/05/20 09:03:06;;;;;;;6.23;4.00;;;;;;;;;;5094196;28;20950;-64
2022/05/20 09:05:33;;;;;;;9.80;4.27;;;;;;;;;;5094558;28;20481;-64
2022/05/20 09:08:02;;;;;;;8.10;4.63;;;;;;;;;;5094351;28;20427;-64
2022/05/20 09:10:30;;;;;;;5.47;3.83;;;;;;;;;;5094173;28;20450;-64
2022/05/20 09:13:05;;;;;;;7.47;4.10;;;;;;;;;;5094427;28;20484;-63
2022/05/20 09:15:43;;;;;;;5.70;3.83;;;;;;;;;;5094430;28;20397;-64
2022/05/20 09:18:09;;;;;;;7.70;4.60;;;;;;;;;;5094173;28;20902;-64
2022/05/20 09:20:42;;;;;;;4.70;4.13;;;;;;;;;;5094016;28;20405;-63
2022/05/20 09:23:10;;;;;;;5.23;3.63;;;;;;;;;;5094051;28;20203;-64
2022/05/20 09:25:36;;;;;;;6.53;4.17;;;;;;;;;;5093976;28;20417;-64
2022/05/20 09:28:21;;;;;;;8.00;4.40;;;;;;;;;;5093307;28;20495;-64
2022/05/20 09:30:49;;;;;;;7.60;3.80;;;;;;;;;;5093865;28;20405;-64
2022/05/20 09:33:18;;;;;;;10.13;4.07;;;;;;;;;;5093879;28;20495;-64
2022/05/20 09:35:47;;;;;;;9.20;4.00;;;;;;;;;;5093899;28;20483;-63
2022/05/20 09:38:28;;;;;;;5.97;4.00;;;;;;;;;;5093704;28;20406;-66
2022/05/20 09:40:54;;;;;;;3.97;3.67;;;;;;;;;;5093576;28;20935;-65
2022/05/20 09:43:28;;;;;;;5.83;4.00;;;;;;;;;;5093884;28;20448;-64
2022/05/20 09:45:55;;;;;;;5.30;3.83;;;;;;;;;;5093706;28;20441;-64
2022/05/20 09:48:40;;;;;;;3.60;3.37;;;;;;;;;;5093676;28;20936;-64
2022/05/20 09:51:06;;;;;;;5.33;3.77;;;;;;;;;;5093659;28;20439;-65
2022/05/20 09:53:36;;;;;;;7.30;3.40;;;;;;;;;;5093694;28;20769;-64
2022/05/20 09:56:21;;;;;;;8.00;3.60;;;;;;;;;;5093579;28;20405;-63
2022/05/20 09:59:05;;;;;;;4.33;2.70;;;;;;;;;;5093578;28;20405;-65
2022/05/20 10:01:32;;;;;;;3.07;2.87;;;;;;;;;;5093578;28;21015;-65
2022/05/20 10:04:00;;;;;;;2.70;2.50;;;;;;;;;;5093606;28;20401;-64
2022/05/20 10:06:34;;;;;;;3.00;2.60;;;;;;;;;;5093614;28;20409;-64
2022/05/20 10:09:06;;;;;;;3.10;2.80;;;;;;;;;;5093612;28;20410;-64
2022/05/20 10:11:35;;;;;;;2.93;2.67;;;;;;;;;;5093387;28;20429;-66
2022/05/20 10:14:08;;;;;;;3.67;2.60;;;;;;;;;;5093428;28;20406;-65
2022/05/20 10:16:36;;;;;;;3.90;3.03;;;;;;;;;;5093411;28;20417;-65
2022/05/20 10:19:19;;;;;;;3.23;3.00;;;;;;;;;;5093421;28;20982;-65
2022/05/20 10:21:48;;;;;;;4.93;2.97;;;;;;;;;;5093347;28;20993;-64
2022/05/20 10:24:24;;;;;;;7.93;3.23;;;;;;;;;;5093333;28;20402;-64
2022/05/20 10:26:54;;;;;;;3.00;2.40;;;;;;;;;;5093269;28;20460;-64
2022/05/20 10:34:53;;;;;;;4.77;3.03;;;;;;;;;;5093579;28;20957;-64
2022/05/20 10:37:24;;;;;;;3.20;2.73;;;;;;;;;;5075158;28;20457;-65
2022/05/20 10:39:56;;;;;;;4.70;3.30;;;;;;;;;;5094216;28;20413;-65
2022/05/20 10:42:22;;;;;;;2.70;2.60;;;;;;;;;;5078877;28;20481;-65
2022/05/20 10:50:33;;;;;;;5.20;3.00;;;;;;;;;;5097003;28;20839;-64
2022/05/20 10:53:11;;;;;;;8.30;3.30;;;;;;;;;;5096892;28;20409;-64
2022/05/20 10:55:40;;;;;;;4.87;3.47;;;;;;;;;;5078969;28;20764;-64
2022/05/20 10:58:25;;;;;;;2.93;2.70;;;;;;;;;;5078586;28;20425;-64
2022/05/20 11:00:52;;;;;;;8.90;3.20;;;;;;;;;;5096717;28;20405;-65
2022/05/20 11:03:37;;;;;;;5.83;3.40;;;;;;;;;;5096665;28;20460;-62
2022/05/20 11:06:15;;;;;;;2.90;2.50;;;;;;;;;;5078525;28;20405;-63
2022/05/20 11:09:01;;;;;;;3.63;3.13;;;;;;;;;;5078363;28;20413;-65
2022/05/20 11:11:34;;;;;;;9.07;2.90;;;;;;;;;;5096466;28;20413;-64
2022/05/20 11:14:19;;;;;;;3.60;2.80;;;;;;;;;;5096488;28;20417;-64
2022/05/20 11:16:48;;;;;;;3.03;2.83;;;;;;;;;;5096405;28;20413;-65
2022/05/20 11:19:23;;;;;;;5.50;3.03;;;;;;;;;;5078222;28;20428;-63
2022/05/20 11:22:08;;;;;;;8.67;2.83;;;;;;;;;;5096445;28;20816;-65
2022/05/20 11:24:52;;;;;;;4.63;3.20;;;;;;;;;;5096532;28;20394;-65
2022/05/20 11:27:30;;;;;;;3.47;3.20;;;;;;;;;;5096077;28;20484;-63
2022/05/20 11:30:15;;;;;;;7.20;3.10;;;;;;;;;;5078090;28;20425;-65
2022/05/20 11:32:53;;;;;;;3.03;2.83;;;;;;;;;;5096110;28;20409;-66
2022/05/20 11:35:22;;;;;;;3.47;2.67;;;;;;;;;;5077999;28;20941;-65
2022/05/20 11:38:06;;;;;;;6.30;3.40;;;;;;;;;;5096073;28;20924;-65
2022/05/20 11:40:41;;;;;;;4.30;3.43;;;;;;;;;;5095971;28;20500;-66
2022/05/20 11:43:10;;;;;;;4.73;3.33;;;;;;;;;;5095872;28;20467;-65
2022/05/20 11:45:43;;;;;;;3.73;2.60;;;;;;;;;;5077837;28;20417;-65
2022/05/20 11:48:12;;;;;;;7.50;3.10;;;;;;;;;;5095893;28;20876;-66
2022/05/20 11:50:57;;;;;;;5.47;3.20;;;;;;;;;;5095844;28;20411;-64
2022/05/20 11:53:27;;;;;;;8.53;3.60;;;;;;;;;;5095456;28;20405;-65
2022/05/20 11:55:56;;;;;;;4.90;2.63;;;;;;;;;;5095912;28;20435;-64
2022/05/20 11:58:48;;;;;;;3.73;2.63;;;;;;;;;;5095716;28;20397;-65
2022/05/20 12:01:14;;;;;;;5.67;3.40;;;;;;;;;;5090987;28;20433;-67
2022/05/20 12:06:28;;;;;;;3.60;3.30;;;;;;;;;;5095777;28;20756;-66
2022/05/20 12:08:55;;;;;;;5.13;3.40;;;;;;;;;;5095495;28;20406;-66
2022/05/20 12:11:28;;;;;;;2.93;2.83;;;;;;;;;;5095373;28;20405;-63
2022/05/20 12:13:58;;;;;;;3.77;3.00;;;;;;;;;;5095439;28;20781;-64
2022/05/20 12:16:25;;;;;;;3.40;2.90;;;;;;;;;;5095264;28;20413;-63
2022/05/20 12:24:31;;;;;;;3.40;3.13;;;;;;;;;;5095196;28;20401;-65
2022/05/20 12:26:57;;;;;;;3.70;3.20;;;;;;;;;;5094912;28;21039;-66
2022/05/20 12:29:36;;;;;;;3.27;3.07;;;;;;;;;;5095019;28;21009;-66
2022/05/20 12:32:17;;;;;;;3.37;2.80;;;;;;;;;;5095017;28;20425;-67
2022/05/20 12:34:53;;;;;;;4.73;3.47;;;;;;;;;;5094947;28;20410;-66
2022/05/20 12:37:37;;;;;;;4.10;2.90;;;;;;;;;;5094945;28;20778;-66
2022/05/20 12:40:04;;;;;;;5.87;2.90;;;;;;;;;;5094785;28;20441;-66
2022/05/20 12:42:40;;;;;;;2.50;2.50;;;;;;;;;;5094688;28;20555;-66
2022/05/20 12:45:07;;;;;;;6.63;2.87;;;;;;;;;;5094814;28;20397;-66
2022/05/20 12:47:34;;;;;;;3.00;2.90;;;;;;;;;;5076558;28;20416;-66
2022/05/20 12:50:09;;;;;;;3.03;2.80;;;;;;;;;;5094702;28;20504;-66
2022/05/20 12:52:51;;;;;;;6.57;2.73;;;;;;;;;;5076520;28;20919;-66
2022/05/20 12:55:27;;;;;;;4.83;2.67;;;;;;;;;;5076643;28;20410;-66
2022/05/20 12:57:55;;;;;;;4.67;3.40;;;;;;;;;;5094696;28;20427;-66
2022/05/20 13:00:28;;;;;;;11.33;3.13;;;;;;;;;;5094495;28;20492;-67
2022/05/20 13:03:15;;;;;;;2.97;2.70;;;;;;;;;;5094281;28;20513;-67
2022/05/20 13:05:47;;;;;;;9.00;3.07;;;;;;;;;;5093970;28;20417;-67
2022/05/20 13:08:16;;;;;;;2.60;2.50;;;;;;;;;;5094316;28;20410;-66
2022/05/20 13:10:42;;;;;;;6.07;3.27;;;;;;;;;;5076102;28;20892;-67
2022/05/20 13:13:11;;;;;;;8.93;3.00;;;;;;;;;;5094291;28;20896;-68
2022/05/20 13:15:41;;;;;;;6.03;3.10;;;;;;;;;;5094075;28;20509;-68
2022/05/20 13:18:11;;;;;;;6.83;3.17;;;;;;;;;;5094168;28;20789;-65
2022/05/20 13:20:38;;;;;;;3.87;3.53;;;;;;;;;;5094468;28;20405;-65
2022/05/20 13:23:06;;;;;;;3.60;3.30;;;;;;;;;;5094285;28;20461;-66
2022/05/20 13:25:32;;;;;;;3.83;2.60;;;;;;;;;;5094070;28;20402;-64
2022/05/20 13:28:02;;;;;;;8.00;3.43;;;;;;;;;;5093869;28;20556;-64
2022/05/20 13:30:30;;;;;;;2.93;2.70;;;;;;;;;;5093949;28;20389;-67
2022/05/20 13:33:10;;;;;;;5.67;3.17;;;;;;;;;;5093900;28;20876;-66
2022/05/20 13:35:40;;;;;;;6.50;3.63;;;;;;;;;;5093905;28;20938;-67
2022/05/20 13:38:06;;;;;;;3.10;2.80;;;;;;;;;;5093911;28;20459;-66
2022/05/20 13:40:34;;;;;;;3.53;2.73;;;;;;;;;;5093848;28;20884;-66
2022/05/20 13:43:00;;;;;;;14.33;3.93;;;;;;;;;;5075518;28;20575;-67
2022/05/20 13:51:04;;;;;;;3.40;3.07;;;;;;;;;;5094027;28;20462;-65
2022/05/20 13:53:31;;;;;;;3.67;3.43;;;;;;;;;;5093725;28;20398;-66
2022/05/20 13:55:58;;;;;;;3.83;3.13;;;;;;;;;;5093644;28;20405;-68
2022/05/20 13:58:24;;;;;;;3.57;3.10;;;;;;;;;;5093676;28;20447;-64
2022/05/20 14:00:51;;;;;;;4.40;3.87;;;;;;;;;;5075588;28;20413;-64
2022/05/20 14:03:19;;;;;;;7.27;3.50;;;;;;;;;;5093405;28;20540;-64
2022/05/20 14:05:49;;;;;;;3.37;3.03;;;;;;;;;;5093492;28;20492;-63
2022/05/20 14:08:20;;;;;;;4.80;3.37;;;;;;;;;;5093462;28;20777;-63
2022/05/20 14:10:48;;;;;;;7.10;3.60;;;;;;;;;;5093452;28;20402;-63
2022/05/20 14:13:22;;;;;;;4.23;2.90;;;;;;;;;;5093683;28;20406;-67
2022/05/20 14:15:56;;;;;;;4.63;3.27;;;;;;;;;;5096073;28;20428;-67
2022/05/20 14:18:30;;;;;;;7.27;3.10;;;;;;;;;;5097836;28;20801;-67
2022/05/20 14:21:03;;;;;;;5.50;2.73;;;;;;;;;;5097565;28;20401;-67
2022/05/20 14:23:34;;;;;;;11.20;3.37;;;;;;;;;;5097347;28;20460;-63
2022/05/20 14:26:02;;;;;;;3.60;3.30;;;;;;;;;;5097173;28;20475;-63
2022/05/20 14:28:39;;;;;;;14.37;3.57;;;;;;;;;;5097247;28;20473;-64
2022/05/20 14:31:06;;;;;;;3.47;3.13;;;;;;;;;;5097398;28;20504;-64
2022/05/20 14:33:35;;;;;;;6.50;2.70;;;;;;;;;;5079064;28;20817;-65
2022/05/20 14:36:05;;;;;;;8.80;3.63;;;;;;;;;;5097326;28;20412;-64
2022/05/20 14:38:33;;;;;;;4.00;2.40;;;;;;;;;;5097214;28;20410;-64
2022/05/20 14:41:03;;;;;;;8.43;3.07;;;;;;;;;;5097047;28;20441;-65
2022/05/20 14:43:47;;;;;;;5.20;3.10;;;;;;;;;;5096998;28;20894;-66
2022/05/20 14:47:14;;;;;;;3.70;3.40;;;;;;;;;;5096975;28;20412;-68
2022/05/20 14:49:06;;;;;;;3.43;3.03;;;;;;;;;;5096567;28;20453;-66
2022/05/20 14:51:32;;;;;;;4.23;3.20;;;;;;;;;;5078782;28;20435;-68
2022/05/20 14:54:01;;;;;;;8.83;3.60;;;;;;;;;;5078692;28;20410;-66
2022/05/20 14:56:44;;;;;;;12.50;3.33;;;;;;;;;;5096770;28;20444;-66
2022/05/20 14:59:11;;;;;;;10.50;3.67;;;;;;;;;;5096731;28;20408;-66
2022/05/20 15:01:38;;;;;;;9.17;3.10;;;;;;;;;;5096509;28;20456;-65
2022/05/20 15:04:04;;;;;;;12.67;3.97;;;;;;;;;;5096580;28;20884;-65
2022/05/20 15:06:35;;;;;;;12.03;3.70;;;;;;;;;;5096666;28;20401;-64
2022/05/20 15:09:01;;;;;;;7.90;3.03;;;;;;;;;;5096574;28;20244;-69
2022/05/20 15:11:29;;;;;;;15.70;4.10;;;;;;;;;;5096370;28;20435;-68
2022/05/20 15:13:55;;;;;;;5.03;3.07;;;;;;;;;;5096422;28;20815;-66
2022/05/20 15:16:21;;;;;;;9.50;2.77;;;;;;;;;;5096267;28;20411;-69
2022/05/20 15:18:48;;;;;;;10.40;3.30;;;;;;;;;;5096480;28;20483;-69
2022/05/20 15:21:15;;;;;;;10.07;3.10;;;;;;;;;;5096072;28;20410;-68
2022/05/20 15:23:43;;;;;;;9.83;2.50;;;;;;;;;;5096162;28;20412;-68
2022/05/20 15:26:10;;;;;;;8.60;3.23;;;;;;;;;;5076557;28;20418;-68
2022/05/20 15:28:49;;;;;;;6.20;3.03;;;;;;;;;;5095844;28;20508;-66
2022/05/20 15:36:50;;;;;;;7.20;3.10;;;;;;;;;;5096172;28;20452;-68
2022/05/20 15:39:18;;;;;;;19.47;3.37;;;;;;;;;;5095975;28;20872;-65
2022/05/20 15:41:44;;;;;;;17.90;3.53;;;;;;;;;;5095798;28;20798;-68
2022/05/20 15:44:10;;;;;;;10.10;3.43;;;;;;;;;;5095903;28;20439;-68